sensor_id;sensor_type;location;lat;lon;timestamp;P1;durP1;ratioP1;P2;durP2;ratioP2
64459;SDS011;50828;53.756;21.140;2023-05-07T00:02:43;4.40;;;2.90;;
64459;SDS011;50828;53.756;21.140;2023-05-07T00:07:51;8.30;;;3.00;;
64459;SDS011;50828;53.756;21.140;2023-05-07T00:13:01;4.80;;;2.70;;
64459;SDS011;50828;53.756;21.140;2023-05-07T00:18:09;4.90;;;2.60;;
64459;SDS011;50828;53.756;21.140;2023-05-07T00:23:16;4.50;;;2.70;;
64459;SDS011;50828;53.756;21.140;2023-05-07T00:28:24;5.50;;;3.10;;
64459;SDS011;50828;53.756;21.140;2023-05-07T00:33:32;5.90;;;3.10;;
64459;SDS011;50828;53.756;21.140;2023-05-07T00:38:39;5.00;;;2.90;;
64459;SDS011;50828;53.756;21.140;2023-05-07T00:43:47;7.10;;;2.50;;
64459;SDS011;50828;53.756;21.140;2023-05-07T00:48:55;4.60;;;2.70;;
64459;SDS011;50828;53.756;21.140;2023-05-07T00:54:03;4.60;;;2.50;;
64459;SDS011;50828;53.756;21.140;2023-05-07T00:59:11;4.70;;;2.70;;
64459;SDS011;50828;53.756;21.140;2023-05-07T01:04:18;5.30;;;2.60;;
64459;SDS011;50828;53.756;21.140;2023-05-07T01:09:26;4.90;;;2.50;;
64459;SDS011;50828;53.756;21.140;2023-05-07T01:14:35;5.00;;;2.20;;
64459;SDS011;50828;53.756;21.140;2023-05-07T01:19:42;4.80;;;2.50;;
64459;SDS011;50828;53.756;21.140;2023-05-07T01:25:04;6.80;;;2.50;;
64459;SDS011;50828;53.756;21.140;2023-05-07T01:30:16;6.90;;;2.50;;
64459;SDS011;50828;53.756;21.140;2023-05-07T01:35:26;6.10;;;2.50;;
64459;SDS011;50828;53.756;21.140;2023-05-07T01:40:35;4.30;;;2.20;;
64459;SDS011;50828;53.756;21.140;2023-05-07T01:45:43;6.00;;;2.70;;
64459;SDS011;50828;53.756;21.140;2023-05-07T01:50:52;6.00;;;2.20;;
64459;SDS011;50828;53.756;21.140;2023-05-07T01:56:00;5.20;;;2.50;;
64459;SDS011;50828;53.756;21.140;2023-05-07T02:01:09;6.50;;;2.70;;
64459;SDS011;50828;53.756;21.140;2023-05-07T02:06:17;7.10;;;2.50;;
64459;SDS011;50828;53.756;21.140;2023-05-07T02:11:24;4.30;;;2.20;;
64459;SDS011;50828;53.756;21.140;2023-05-07T02:16:32;4.40;;;2.40;;
64459;SDS011;50828;53.756;21.140;2023-05-07T02:21:40;7.40;;;2.60;;
64459;SDS011;50828;53.756;21.140;2023-05-07T02:26:47;5.30;;;2.00;;
64459;SDS011;50828;53.756;21.140;2023-05-07T02:31:55;4.20;;;2.30;;
64459;SDS011;50828;53.756;21.140;2023-05-07T02:37:03;6.00;;;2.50;;
64459;SDS011;50828;53.756;21.140;2023-05-07T02:42:11;6.30;;;2.30;;
64459;SDS011;50828;53.756;21.140;2023-05-07T02:47:18;4.80;;;2.10;;
64459;SDS011;50828;53.756;21.140;2023-05-07T02:52:26;6.00;;;2.50;;
64459;SDS011;50828;53.756;21.140;2023-05-07T02:57:34;4.00;;;2.10;;
64459;SDS011;50828;53.756;21.140;2023-05-07T03:02:41;3.90;;;1.90;;
64459;SDS011;50828;53.756;21.140;2023-05-07T03:07:49;6.20;;;2.60;;
64459;SDS011;50828;53.756;21.140;2023-05-07T03:12:57;4.50;;;2.00;;
64459;SDS011;50828;53.756;21.140;2023-05-07T03:18:05;4.40;;;2.10;;
64459;SDS011;50828;53.756;21.140;2023-05-07T03:23:13;5.20;;;2.70;;
64459;SDS011;50828;53.756;21.140;2023-05-07T03:28:20;3.50;;;2.00;;
64459;SDS011;50828;53.756;21.140;2023-05-07T03:33:32;3.60;;;1.70;;
64459;SDS011;50828;53.756;21.140;2023-05-07T03:38:40;3.40;;;2.00;;
64459;SDS011;50828;53.756;21.140;2023-05-07T03:43:47;3.10;;;1.70;;
64459;SDS011;50828;53.756;21.140;2023-05-07T03:48:55;3.50;;;1.90;;
64459;SDS011;50828;53.756;21.140;2023-05-07T03:54:02;4.10;;;2.00;;
64459;SDS011;50828;53.756;21.140;2023-05-07T03:59:10;3.90;;;1.70;;
64459;SDS011;50828;53.756;21.140;2023-05-07T04:04:18;3.50;;;2.00;;
64459;SDS011;50828;53.756;21.140;2023-05-07T04:09:26;2.70;;;1.70;;
64459;SDS011;50828;53.756;21.140;2023-05-07T04:14:33;4.20;;;1.90;;
64459;SDS011;50828;53.756;21.140;2023-05-07T04:19:41;2.80;;;1.70;;
64459;SDS011;50828;53.756;21.140;2023-05-07T04:24:50;2.40;;;1.50;;
64459;SDS011;50828;53.756;21.140;2023-05-07T04:29:58;3.60;;;1.90;;
64459;SDS011;50828;53.756;21.140;2023-05-07T04:35:08;4.00;;;1.90;;
64459;SDS011;50828;53.756;21.140;2023-05-07T04:40:16;2.40;;;1.30;;
64459;SDS011;50828;53.756;21.140;2023-05-07T04:45:23;4.10;;;1.90;;
64459;SDS011;50828;53.756;21.140;2023-05-07T04:50:31;2.70;;;1.60;;
64459;SDS011;50828;53.756;21.140;2023-05-07T04:55:38;4.00;;;1.60;;
64459;SDS011;50828;53.756;21.140;2023-05-07T05:00:46;4.50;;;1.60;;
64459;SDS011;50828;53.756;21.140;2023-05-07T05:05:53;2.30;;;1.60;;
64459;SDS011;50828;53.756;21.140;2023-05-07T05:11:05;3.00;;;1.90;;
64459;SDS011;50828;53.756;21.140;2023-05-07T05:16:12;3.60;;;1.60;;
64459;SDS011;50828;53.756;21.140;2023-05-07T05:21:20;2.00;;;1.30;;
64459;SDS011;50828;53.756;21.140;2023-05-07T05:26:30;2.60;;;1.80;;
64459;SDS011;50828;53.756;21.140;2023-05-07T05:31:38;4.00;;;1.80;;
64459;SDS011;50828;53.756;21.140;2023-05-07T05:36:46;4.80;;;1.90;;
64459;SDS011;50828;53.756;21.140;2023-05-07T05:41:53;3.00;;;1.60;;
64459;SDS011;50828;53.756;21.140;2023-05-07T05:47:02;2.30;;;1.60;;
64459;SDS011;50828;53.756;21.140;2023-05-07T05:52:11;4.20;;;1.60;;
64459;SDS011;50828;53.756;21.140;2023-05-07T05:57:21;2.40;;;1.60;;
64459;SDS011;50828;53.756;21.140;2023-05-07T06:02:31;3.10;;;1.60;;
64459;SDS011;50828;53.756;21.140;2023-05-07T06:07:39;2.90;;;1.60;;
64459;SDS011;50828;53.756;21.140;2023-05-07T06:12:47;4.30;;;1.70;;
64459;SDS011;50828;53.756;21.140;2023-05-07T06:17:55;2.40;;;1.60;;
64459;SDS011;50828;53.756;21.140;2023-05-07T06:23:02;3.70;;;1.70;;
64459;SDS011;50828;53.756;21.140;2023-05-07T06:28:10;2.60;;;1.60;;
64459;SDS011;50828;53.756;21.140;2023-05-07T06:33:18;2.30;;;1.30;;
64459;SDS011;50828;53.756;21.140;2023-05-07T06:38:25;3.00;;;1.50;;
64459;SDS011;50828;53.756;21.140;2023-05-07T06:43:33;3.80;;;1.60;;
64459;SDS011;50828;53.756;21.140;2023-05-07T06:49:02;3.00;;;1.60;;
64459;SDS011;50828;53.756;21.140;2023-05-07T06:54:09;3.60;;;1.90;;
64459;SDS011;50828;53.756;21.140;2023-05-07T06:59:18;3.90;;;1.70;;
64459;SDS011;50828;53.756;21.140;2023-05-07T07:04:26;4.30;;;1.80;;
64459;SDS011;50828;53.756;21.140;2023-05-07T07:09:37;2.30;;;1.40;;
64459;SDS011;50828;53.756;21.140;2023-05-07T07:14:45;3.50;;;1.70;;
64459;SDS011;50828;53.756;21.140;2023-05-07T07:19:53;4.80;;;1.70;;
64459;SDS011;50828;53.756;21.140;2023-05-07T07:25:00;5.30;;;2.00;;
64459;SDS011;50828;53.756;21.140;2023-05-07T07:30:09;2.70;;;1.60;;
64459;SDS011;50828;53.756;21.140;2023-05-07T07:35:19;5.60;;;2.10;;
64459;SDS011;50828;53.756;21.140;2023-05-07T07:40:28;3.00;;;1.60;;
64459;SDS011;50828;53.756;21.140;2023-05-07T07:45:36;5.30;;;2.00;;
64459;SDS011;50828;53.756;21.140;2023-05-07T07:50:43;3.20;;;1.70;;
64459;SDS011;50828;53.756;21.140;2023-05-07T07:55:53;5.90;;;2.50;;
64459;SDS011;50828;53.756;21.140;2023-05-07T08:01:04;3.10;;;1.50;;
64459;SDS011;50828;53.756;21.140;2023-05-07T08:06:12;4.50;;;1.50;;
64459;SDS011;50828;53.756;21.140;2023-05-07T08:11:20;3.30;;;1.40;;
64459;SDS011;50828;53.756;21.140;2023-05-07T08:16:28;5.70;;;2.30;;
64459;SDS011;50828;53.756;21.140;2023-05-07T08:21:38;3.50;;;1.70;;
64459;SDS011;50828;53.756;21.140;2023-05-07T08:26:46;2.70;;;1.20;;
64459;SDS011;50828;53.756;21.140;2023-05-07T08:31:55;1.50;;;1.00;;
64459;SDS011;50828;53.756;21.140;2023-05-07T08:37:02;2.00;;;1.20;;
64459;SDS011;50828;53.756;21.140;2023-05-07T08:42:10;3.30;;;1.20;;
64459;SDS011;50828;53.756;21.140;2023-05-07T08:47:22;1.50;;;1.00;;
64459;SDS011;50828;53.756;21.140;2023-05-07T08:52:35;4.40;;;1.60;;
64459;SDS011;50828;53.756;21.140;2023-05-07T08:57:43;2.90;;;1.30;;
64459;SDS011;50828;53.756;21.140;2023-05-07T09:02:51;2.40;;;1.20;;
64459;SDS011;50828;53.756;21.140;2023-05-07T09:08:00;2.00;;;1.10;;
64459;SDS011;50828;53.756;21.140;2023-05-07T09:13:11;2.60;;;1.30;;
64459;SDS011;50828;53.756;21.140;2023-05-07T09:18:20;2.10;;;1.20;;
64459;SDS011;50828;53.756;21.140;2023-05-07T09:23:28;3.00;;;1.30;;
64459;SDS011;50828;53.756;21.140;2023-05-07T09:28:36;2.90;;;1.20;;
64459;SDS011;50828;53.756;21.140;2023-05-07T09:33:47;7.90;;;1.20;;
64459;SDS011;50828;53.756;21.140;2023-05-07T09:38:54;4.50;;;2.10;;
64459;SDS011;50828;53.756;21.140;2023-05-07T09:44:04;4.10;;;1.40;;
64459;SDS011;50828;53.756;21.140;2023-05-07T09:49:18;3.80;;;1.30;;
64459;SDS011;50828;53.756;21.140;2023-05-07T09:54:35;6.80;;;1.50;;
64459;SDS011;50828;53.756;21.140;2023-05-07T09:59:44;3.50;;;1.50;;
64459;SDS011;50828;53.756;21.140;2023-05-07T10:04:54;2.00;;;1.30;;
64459;SDS011;50828;53.756;21.140;2023-05-07T10:10:03;2.50;;;1.20;;
64459;SDS011;50828;53.756;21.140;2023-05-07T10:15:15;2.10;;;1.40;;
64459;SDS011;50828;53.756;21.140;2023-05-07T10:20:27;3.60;;;1.30;;
64459;SDS011;50828;53.756;21.140;2023-05-07T10:25:35;2.10;;;1.30;;
64459;SDS011;50828;53.756;21.140;2023-05-07T10:30:51;3.50;;;1.30;;
64459;SDS011;50828;53.756;21.140;2023-05-07T10:36:15;1.60;;;1.20;;
64459;SDS011;50828;53.756;21.140;2023-05-07T10:41:24;2.30;;;1.40;;
64459;SDS011;50828;53.756;21.140;2023-05-07T10:46:31;3.70;;;1.50;;
64459;SDS011;50828;53.756;21.140;2023-05-07T10:51:55;4.40;;;1.10;;
64459;SDS011;50828;53.756;21.140;2023-05-07T10:57:34;1.80;;;1.20;;
64459;SDS011;50828;53.756;21.140;2023-05-07T11:03:07;2.40;;;1.10;;
64459;SDS011;50828;53.756;21.140;2023-05-07T11:08:24;1.80;;;1.20;;
64459;SDS011;50828;53.756;21.140;2023-05-07T11:13:51;3.60;;;1.40;;
64459;SDS011;50828;53.756;21.140;2023-05-07T11:19:16;1.80;;;1.20;;
64459;SDS011;50828;53.756;21.140;2023-05-07T11:24:44;3.90;;;1.20;;
64459;SDS011;50828;53.756;21.140;2023-05-07T11:29:51;2.90;;;1.30;;
64459;SDS011;50828;53.756;21.140;2023-05-07T11:34:59;2.30;;;1.20;;
64459;SDS011;50828;53.756;21.140;2023-05-07T11:40:08;1.90;;;1.10;;
64459;SDS011;50828;53.756;21.140;2023-05-07T11:45:23;1.80;;;1.40;;
64459;SDS011;50828;53.756;21.140;2023-05-07T11:50:31;4.20;;;1.50;;
64459;SDS011;50828;53.756;21.140;2023-05-07T11:55:38;3.00;;;1.50;;
64459;SDS011;50828;53.756;21.140;2023-05-07T12:00:49;3.90;;;1.30;;
64459;SDS011;50828;53.756;21.140;2023-05-07T12:05:57;3.70;;;1.50;;
64459;SDS011;50828;53.756;21.140;2023-05-07T12:11:04;4.00;;;1.50;;
64459;SDS011;50828;53.756;21.140;2023-05-07T12:16:15;2.30;;;1.30;;
64459;SDS011;50828;53.756;21.140;2023-05-07T12:21:23;3.60;;;1.40;;
64459;SDS011;50828;53.756;21.140;2023-05-07T12:26:30;2.60;;;1.60;;
64459;SDS011;50828;53.756;21.140;2023-05-07T12:31:42;3.50;;;1.60;;
64459;SDS011;50828;53.756;21.140;2023-05-07T12:36:49;4.00;;;1.60;;
64459;SDS011;50828;53.756;21.140;2023-05-07T12:41:59;4.00;;;1.60;;
64459;SDS011;50828;53.756;21.140;2023-05-07T12:47:06;5.60;;;1.40;;
64459;SDS011;50828;53.756;21.140;2023-05-07T12:52:14;2.80;;;1.30;;
64459;SDS011;50828;53.756;21.140;2023-05-07T12:57:21;2.30;;;1.50;;
64459;SDS011;50828;53.756;21.140;2023-05-07T13:02:33;3.10;;;1.40;;
64459;SDS011;50828;53.756;21.140;2023-05-07T13:07:48;3.20;;;1.40;;
64459;SDS011;50828;53.756;21.140;2023-05-07T13:12:59;6.00;;;1.40;;
64459;SDS011;50828;53.756;21.140;2023-05-07T13:18:07;3.50;;;1.60;;
64459;SDS011;50828;53.756;21.140;2023-05-07T13:23:15;5.10;;;1.80;;
64459;SDS011;50828;53.756;21.140;2023-05-07T13:28:22;3.10;;;1.50;;
64459;SDS011;50828;53.756;21.140;2023-05-07T13:33:30;3.20;;;1.50;;
64459;SDS011;50828;53.756;21.140;2023-05-07T13:38:38;4.00;;;1.50;;
64459;SDS011;50828;53.756;21.140;2023-05-07T13:43:46;3.10;;;1.60;;
64459;SDS011;50828;53.756;21.140;2023-05-07T13:48:53;1.70;;;1.30;;
64459;SDS011;50828;53.756;21.140;2023-05-07T13:54:00;4.60;;;1.50;;
64459;SDS011;50828;53.756;21.140;2023-05-07T13:59:07;2.60;;;1.50;;
64459;SDS011;50828;53.756;21.140;2023-05-07T14:04:16;2.90;;;1.70;;
64459;SDS011;50828;53.756;21.140;2023-05-07T14:09:23;3.30;;;1.50;;
64459;SDS011;50828;53.756;21.140;2023-05-07T14:14:30;2.60;;;1.60;;
64459;SDS011;50828;53.756;21.140;2023-05-07T14:19:37;2.30;;;1.60;;
64459;SDS011;50828;53.756;21.140;2023-05-07T14:24:45;5.50;;;1.50;;
64459;SDS011;50828;53.756;21.140;2023-05-07T14:30:13;2.90;;;1.60;;
64459;SDS011;50828;53.756;21.140;2023-05-07T14:35:20;4.30;;;2.00;;
64459;SDS011;50828;53.756;21.140;2023-05-07T14:40:28;3.90;;;1.60;;
64459;SDS011;50828;53.756;21.140;2023-05-07T14:45:36;5.50;;;2.00;;
64459;SDS011;50828;53.756;21.140;2023-05-07T14:50:43;2.70;;;1.70;;
64459;SDS011;50828;53.756;21.140;2023-05-07T14:55:51;4.10;;;1.70;;
64459;SDS011;50828;53.756;21.140;2023-05-07T15:00:59;2.60;;;2.20;;
64459;SDS011;50828;53.756;21.140;2023-05-07T15:06:06;4.10;;;1.70;;
64459;SDS011;50828;53.756;21.140;2023-05-07T15:11:14;3.30;;;1.70;;
64459;SDS011;50828;53.756;21.140;2023-05-07T15:16:21;4.30;;;1.70;;
64459;SDS011;50828;53.756;21.140;2023-05-07T15:21:29;3.00;;;1.70;;
64459;SDS011;50828;53.756;21.140;2023-05-07T15:26:38;2.40;;;1.70;;
64459;SDS011;50828;53.756;21.140;2023-05-07T15:31:45;3.70;;;1.70;;
64459;SDS011;50828;53.756;21.140;2023-05-07T15:36:52;3.10;;;2.10;;
64459;SDS011;50828;53.756;21.140;2023-05-07T15:42:01;4.30;;;1.50;;
64459;SDS011;50828;53.756;21.140;2023-05-07T15:47:08;4.90;;;1.70;;
64459;SDS011;50828;53.756;21.140;2023-05-07T15:52:17;5.40;;;1.70;;
64459;SDS011;50828;53.756;21.140;2023-05-07T15:57:24;3.20;;;1.80;;
64459;SDS011;50828;53.756;21.140;2023-05-07T16:02:32;7.50;;;1.80;;
64459;SDS011;50828;53.756;21.140;2023-05-07T16:07:40;3.00;;;1.40;;
64459;SDS011;50828;53.756;21.140;2023-05-07T16:12:48;4.50;;;1.70;;
64459;SDS011;50828;53.756;21.140;2023-05-07T16:17:55;1.60;;;1.30;;
64459;SDS011;50828;53.756;21.140;2023-05-07T16:23:02;2.80;;;1.80;;
64459;SDS011;50828;53.756;21.140;2023-05-07T16:28:09;2.90;;;1.60;;
64459;SDS011;50828;53.756;21.140;2023-05-07T16:33:17;3.60;;;1.70;;
64459;SDS011;50828;53.756;21.140;2023-05-07T16:38:24;1.80;;;1.40;;
64459;SDS011;50828;53.756;21.140;2023-05-07T16:43:36;5.50;;;2.00;;
64459;SDS011;50828;53.756;21.140;2023-05-07T16:48:43;1.90;;;1.40;;
64459;SDS011;50828;53.756;21.140;2023-05-07T16:53:50;2.90;;;1.40;;
64459;SDS011;50828;53.756;21.140;2023-05-07T16:58:58;1.80;;;1.30;;
64459;SDS011;50828;53.756;21.140;2023-05-07T17:04:05;3.50;;;1.70;;
64459;SDS011;50828;53.756;21.140;2023-05-07T17:09:13;4.30;;;1.90;;
64459;SDS011;50828;53.756;21.140;2023-05-07T17:14:20;2.80;;;1.60;;
64459;SDS011;50828;53.756;21.140;2023-05-07T17:19:27;2.60;;;1.70;;
64459;SDS011;50828;53.756;21.140;2023-05-07T17:24:34;3.40;;;1.60;;
64459;SDS011;50828;53.756;21.140;2023-05-07T17:29:42;4.10;;;1.80;;
64459;SDS011;50828;53.756;21.140;2023-05-07T17:34:49;28.70;;;15.20;;
64459;SDS011;50828;53.756;21.140;2023-05-07T17:39:56;24.20;;;16.40;;
64459;SDS011;50828;53.756;21.140;2023-05-07T17:45:04;10.20;;;6.70;;
64459;SDS011;50828;53.756;21.140;2023-05-07T17:50:13;40.30;;;18.50;;
64459;SDS011;50828;53.756;21.140;2023-05-07T17:55:20;61.90;;;26.00;;
64459;SDS011;50828;53.756;21.140;2023-05-07T18:00:28;39.80;;;15.40;;
64459;SDS011;50828;53.756;21.140;2023-05-07T18:05:36;35.40;;;15.50;;
64459;SDS011;50828;53.756;21.140;2023-05-07T18:10:43;34.50;;;14.10;;
64459;SDS011;50828;53.756;21.140;2023-05-07T18:15:51;20.40;;;9.50;;
64459;SDS011;50828;53.756;21.140;2023-05-07T18:20:58;22.70;;;10.20;;
64459;SDS011;50828;53.756;21.140;2023-05-07T18:26:05;27.10;;;12.20;;
64459;SDS011;50828;53.756;21.140;2023-05-07T18:31:13;38.60;;;15.90;;
64459;SDS011;50828;53.756;21.140;2023-05-07T18:36:20;37.60;;;16.30;;
64459;SDS011;50828;53.756;21.140;2023-05-07T18:41:30;38.00;;;17.30;;
64459;SDS011;50828;53.756;21.140;2023-05-07T18:46:37;36.30;;;15.90;;
64459;SDS011;50828;53.756;21.140;2023-05-07T18:51:46;34.90;;;16.30;;
64459;SDS011;50828;53.756;21.140;2023-05-07T18:56:53;39.70;;;16.40;;
64459;SDS011;50828;53.756;21.140;2023-05-07T19:02:00;33.50;;;14.90;;
64459;SDS011;50828;53.756;21.140;2023-05-07T19:07:08;25.50;;;13.00;;
64459;SDS011;50828;53.756;21.140;2023-05-07T19:12:15;24.50;;;10.30;;
64459;SDS011;50828;53.756;21.140;2023-05-07T19:17:22;23.00;;;10.40;;
64459;SDS011;50828;53.756;21.140;2023-05-07T19:22:30;25.10;;;13.40;;
64459;SDS011;50828;53.756;21.140;2023-05-07T19:27:37;58.30;;;29.50;;
64459;SDS011;50828;53.756;21.140;2023-05-07T19:32:44;62.70;;;30.10;;
64459;SDS011;50828;53.756;21.140;2023-05-07T19:37:52;38.50;;;19.40;;
64459;SDS011;50828;53.756;21.140;2023-05-07T19:42:59;17.00;;;9.30;;
64459;SDS011;50828;53.756;21.140;2023-05-07T19:48:06;12.00;;;6.20;;
64459;SDS011;50828;53.756;21.140;2023-05-07T19:53:14;14.80;;;8.30;;
64459;SDS011;50828;53.756;21.140;2023-05-07T19:58:21;20.20;;;10.70;;
64459;SDS011;50828;53.756;21.140;2023-05-07T20:03:29;25.80;;;11.30;;
64459;SDS011;50828;53.756;21.140;2023-05-07T20:08:37;30.60;;;13.50;;
64459;SDS011;50828;53.756;21.140;2023-05-07T20:13:45;34.20;;;13.70;;
64459;SDS011;50828;53.756;21.140;2023-05-07T20:18:53;33.20;;;14.30;;
64459;SDS011;50828;53.756;21.140;2023-05-07T20:24:00;26.10;;;11.60;;
64459;SDS011;50828;53.756;21.140;2023-05-07T20:29:08;30.10;;;10.80;;
64459;SDS011;50828;53.756;21.140;2023-05-07T20:34:15;27.00;;;12.70;;
64459;SDS011;50828;53.756;21.140;2023-05-07T20:39:24;15.80;;;8.90;;
64459;SDS011;50828;53.756;21.140;2023-05-07T20:44:32;11.20;;;6.70;;
64459;SDS011;50828;53.756;21.140;2023-05-07T20:49:40;14.00;;;8.70;;
64459;SDS011;50828;53.756;21.140;2023-05-07T20:54:48;15.80;;;9.80;;
64459;SDS011;50828;53.756;21.140;2023-05-07T20:59:55;16.80;;;9.40;;
64459;SDS011;50828;53.756;21.140;2023-05-07T21:05:02;15.90;;;9.30;;
64459;SDS011;50828;53.756;21.140;2023-05-07T21:10:11;9.30;;;5.70;;
64459;SDS011;50828;53.756;21.140;2023-05-07T21:15:18;7.30;;;4.30;;
64459;SDS011;50828;53.756;21.140;2023-05-07T21:20:25;6.30;;;3.80;;
64459;SDS011;50828;53.756;21.140;2023-05-07T21:25:35;20.00;;;7.50;;
64459;SDS011;50828;53.756;21.140;2023-05-07T21:30:43;28.60;;;10.10;;
64459;SDS011;50828;53.756;21.140;2023-05-07T21:35:51;16.40;;;6.40;;
64459;SDS011;50828;53.756;21.140;2023-05-07T21:40:58;10.90;;;4.60;;
64459;SDS011;50828;53.756;21.140;2023-05-07T21:46:06;6.00;;;3.10;;
64459;SDS011;50828;53.756;21.140;2023-05-07T21:51:14;7.50;;;3.40;;
64459;SDS011;50828;53.756;21.140;2023-05-07T21:56:21;6.60;;;2.70;;
64459;SDS011;50828;53.756;21.140;2023-05-07T22:01:29;10.90;;;3.70;;
64459;SDS011;50828;53.756;21.140;2023-05-07T22:06:36;7.40;;;3.30;;
64459;SDS011;50828;53.756;21.140;2023-05-07T22:11:42;8.10;;;3.60;;
64459;SDS011;50828;53.756;21.140;2023-05-07T22:16:50;8.80;;;4.30;;
64459;SDS011;50828;53.756;21.140;2023-05-07T22:21:57;12.20;;;5.80;;
64459;SDS011;50828;53.756;21.140;2023-05-07T22:27:04;10.90;;;5.30;;
64459;SDS011;50828;53.756;21.140;2023-05-07T22:32:12;13.10;;;6.00;;
64459;SDS011;50828;53.756;21.140;2023-05-07T22:37:19;10.90;;;5.40;;
64459;SDS011;50828;53.756;21.140;2023-05-07T22:42:29;11.90;;;5.10;;
64459;SDS011;50828;53.756;21.140;2023-05-07T22:47:36;12.30;;;5.90;;
64459;SDS011;50828;53.756;21.140;2023-05-07T22:52:43;9.70;;;4.80;;
64459;SDS011;50828;53.756;21.140;2023-05-07T22:57:51;10.60;;;5.00;;
64459;SDS011;50828;53.756;21.140;2023-05-07T23:02:58;8.90;;;4.20;;
64459;SDS011;50828;53.756;21.140;2023-05-07T23:08:06;12.00;;;4.80;;
64459;SDS011;50828;53.756;21.140;2023-05-07T23:13:14;16.90;;;6.50;;
64459;SDS011;50828;53.756;21.140;2023-05-07T23:18:21;24.50;;;7.80;;
64459;SDS011;50828;53.756;21.140;2023-05-07T23:23:30;25.90;;;8.30;;
64459;SDS011;50828;53.756;21.140;2023-05-07T23:28:40;17.20;;;5.10;;
64459;SDS011;50828;53.756;21.140;2023-05-07T23:33:47;13.20;;;4.60;;
64459;SDS011;50828;53.756;21.140;2023-05-07T23:38:54;10.80;;;4.30;;
64459;SDS011;50828;53.756;21.140;2023-05-07T23:44:02;10.70;;;4.40;;
64459;SDS011;50828;53.756;21.140;2023-05-07T23:49:09;8.40;;;4.10;;
64459;SDS011;50828;53.756;21.140;2023-05-07T23:54:16;11.50;;;4.30;;
64459;SDS011;50828;53.756;21.140;2023-05-07T23:59:23;9.80;;;4.20;;
